createdAt,value
2022-12-26T00:00:59.027Z,267.35
2022-12-26T00:01:58.895Z,268.45
2022-12-26T00:02:59.003Z,266.26
2022-12-26T00:03:58.992Z,261.99
2022-12-26T00:04:58.935Z,260.74
2022-12-26T00:05:58.838Z,258.06
2022-12-26T00:06:58.838Z,258.47
2022-12-26T00:07:58.810Z,263.05
2022-12-26T00:08:58.798Z,265.83
2022-12-26T00:09:58.798Z,263.68
2022-12-26T00:10:58.806Z,261.78
2022-12-26T00:11:58.765Z,266.04
2022-12-26T00:13:38.445Z,263.68
2022-12-26T00:13:58.743Z,257.45
2022-12-26T00:14:58.741Z,259.29
2022-12-26T00:15:58.753Z,261.15
2022-12-26T00:16:58.724Z,260.53
2022-12-26T00:17:58.679Z,253.85
2022-12-26T00:18:58.678Z,257.05
2022-12-26T00:19:58.679Z,255.44
2022-12-26T00:20:58.666Z,255.24
2022-12-26T00:21:58.642Z,257.25
2022-12-26T00:22:58.643Z,260.74
2022-12-26T00:23:58.604Z,259.70
2022-12-26T00:24:58.600Z,255.44
2022-12-26T00:25:58.596Z,249.21
2022-12-26T00:26:58.571Z,247.70
2022-12-26T00:27:58.555Z,249.02
2022-12-26T00:28:58.546Z,247.88
2022-12-26T00:29:58.535Z,246.21
2022-12-26T00:30:58.549Z,248.26
2022-12-26T00:31:58.576Z,251.51
2022-12-26T00:32:58.495Z,249.02
2022-12-26T00:33:58.499Z,246.95
2022-12-26T00:34:58.481Z,243.09
2022-12-26T00:35:58.463Z,242.19
2022-12-26T00:36:58.448Z,246.02
2022-12-26T00:37:58.437Z,243.82
2022-12-26T00:38:58.431Z,245.28
2022-12-26T00:39:58.409Z,249.21
2022-12-26T00:40:58.399Z,245.84
2022-12-26T00:41:58.398Z,234.88
2022-12-26T00:42:58.386Z,230.57
2022-12-26T00:43:58.362Z,226.74
2022-12-26T00:44:58.345Z,222.42
2022-12-26T00:45:58.339Z,223.63
2022-12-26T00:46:58.513Z,226.42
2022-12-26T00:47:58.303Z,227.68
2022-12-26T00:48:58.324Z,232.71
2022-12-26T00:50:13.406Z,228.32
2022-12-26T00:50:58.319Z,229.60
2022-12-26T00:51:58.264Z,233.37
2022-12-26T00:52:58.248Z,233.37
2022-12-26T00:53:58.256Z,232.71
2022-12-26T00:54:58.222Z,232.38
2022-12-26T00:55:58.220Z,233.37
2022-12-26T00:56:58.207Z,233.54
2022-12-26T00:57:58.187Z,228.16
2022-12-26T00:58:58.205Z,232.05
2022-12-26T00:59:58.167Z,236.41
2022-12-26T01:00:58.211Z,235.90
2022-12-26T01:01:58.366Z,236.41
2022-12-26T01:02:58.252Z,232.88
2022-12-26T01:03:58.117Z,227.05
2022-12-26T01:04:58.099Z,225.49
2022-12-26T01:05:58.081Z,229.12
2022-12-26T01:06:58.085Z,230.09
2022-12-26T01:08:20.364Z,226.89
2022-12-26T01:08:58.057Z,220.02
2022-12-26T01:09:58.029Z,217.97
2022-12-26T01:10:58.050Z,221.66
2022-12-26T01:11:58.026Z,226.27
2022-12-26T01:12:58.017Z,228.16
2022-12-26T01:13:57.995Z,231.23
2022-12-26T01:14:57.978Z,235.90
2022-12-26T01:15:58.041Z,235.39
2022-12-26T01:16:57.981Z,234.55
2022-12-26T01:17:57.943Z,233.04
2022-12-26T01:18:57.926Z,235.39
2022-12-26T01:19:57.919Z,233.87
2022-12-26T01:20:57.901Z,232.05
2022-12-26T01:21:57.882Z,231.88
2022-12-26T01:22:57.890Z,232.71
2022-12-26T01:23:57.856Z,228.80
2022-12-26T01:24:57.854Z,224.71
2022-12-26T01:26:15.340Z,220.17
2022-12-26T01:26:57.842Z,225.33
2022-12-26T01:27:57.822Z,229.60
2022-12-26T01:28:57.797Z,225.33
2022-12-26T01:29:57.792Z,225.80
2022-12-26T01:30:57.803Z,228.96
2022-12-26T01:31:57.828Z,230.41
2022-12-26T01:32:57.771Z,234.21
2022-12-26T01:33:57.736Z,235.56
2022-12-26T01:34:57.742Z,238.31
2022-12-26T01:35:57.715Z,247.32
2022-12-26T01:36:57.705Z,241.30
2022-12-26T01:37:57.702Z,241.12
2022-12-26T01:38:57.673Z,242.37
2022-12-26T01:39:57.660Z,244.91
2022-12-26T01:40:57.653Z,242.19
2022-12-26T01:41:57.650Z,242.55
2022-12-26T01:42:57.626Z,243.82
2022-12-26T01:43:57.643Z,245.84
2022-12-26T01:44:57.603Z,252.09
2022-12-26T01:45:57.644Z,255.44
2022-12-26T01:46:57.575Z,254.45
2022-12-26T01:47:57.560Z,258.06
2022-12-26T01:48:57.557Z,263.89
2022-12-26T01:49:57.537Z,266.26
2022-12-26T01:50:57.528Z,273.39
2022-12-26T01:51:57.511Z,272.02
2022-12-26T01:52:57.501Z,275.46
2022-12-26T01:54:37.990Z,275.92
2022-12-26T01:54:57.482Z,277.33
2022-12-26T01:55:57.497Z,283.09
2022-12-26T01:56:57.472Z,288.85
2022-12-26T01:57:57.438Z,291.16
2022-12-26T01:58:57.444Z,293.51
2022-12-26T01:59:57.407Z,290.13
2022-12-26T02:00:57.420Z,285.57
2022-12-26T02:01:57.630Z,292.99
2022-12-26T02:02:57.487Z,294.31
2022-12-26T02:03:57.375Z,295.10
2022-12-26T02:04:57.375Z,298.61
2022-12-26T02:05:57.343Z,302.20
2022-12-26T02:06:57.327Z,295.37
2022-12-26T02:07:57.305Z,285.82
2022-12-26T02:08:57.303Z,282.85
2022-12-26T02:09:57.313Z,283.09
2022-12-26T02:10:57.276Z,284.57
2022-12-26T02:12:35.018Z,292.73
2022-12-26T02:12:57.248Z,287.32
2022-12-26T02:13:57.263Z,291.94
2022-12-26T02:14:57.263Z,295.64
2022-12-26T02:15:57.215Z,288.59
2022-12-26T02:16:57.240Z,290.90
2022-12-26T02:17:57.180Z,288.59
2022-12-26T02:18:57.186Z,290.13
2022-12-26T02:19:57.153Z,288.34
2022-12-26T02:20:57.156Z,285.57
2022-12-26T02:21:57.139Z,282.11
2022-12-26T02:22:57.133Z,285.82
2022-12-26T02:23:57.120Z,284.32
2022-12-26T02:24:57.092Z,291.68
2022-12-26T02:25:57.094Z,291.94
2022-12-26T02:26:57.073Z,291.68
2022-12-26T02:27:57.058Z,284.57
2022-12-26T02:28:57.053Z,280.42
2022-12-26T02:29:57.044Z,283.83
2022-12-26T02:30:57.058Z,285.32
2022-12-26T02:31:57.049Z,280.90
2022-12-26T02:32:56.998Z,278.98
2022-12-26T02:33:56.975Z,276.39
2022-12-26T02:34:56.968Z,272.93
2022-12-26T02:35:56.961Z,274.76
2022-12-26T02:36:56.955Z,276.39
2022-12-26T02:37:56.927Z,274.76
2022-12-26T02:38:56.916Z,266.04
2022-12-26T02:39:56.911Z,276.62
2022-12-26T02:40:56.888Z,286.32
2022-12-26T02:41:56.890Z,294.04
2022-12-26T02:42:56.867Z,291.42
2022-12-26T02:43:56.844Z,301.92
2022-12-26T02:44:56.849Z,300.25
2022-12-26T02:45:56.876Z,299.70
2022-12-26T02:46:56.819Z,306.73
2022-12-26T02:47:56.795Z,314.71
2022-12-26T02:48:56.838Z,324.39
2022-12-26T02:49:56.790Z,325.68
2022-12-26T02:50:56.766Z,327.97
2022-12-26T02:51:56.752Z,336.06
2022-12-26T02:52:56.743Z,341.68
2022-12-26T02:53:56.730Z,340.97
2022-12-26T02:54:56.708Z,339.55
2022-12-26T02:55:56.697Z,343.48
2022-12-26T02:56:56.689Z,343.48
2022-12-26T02:57:56.681Z,346.02
2022-12-26T02:58:56.676Z,349.35
2022-12-26T02:59:57.398Z,350.47
2022-12-26T03:00:56.727Z,350.10
2022-12-26T03:01:56.795Z,354.66
2022-12-26T03:02:56.654Z,356.59
2022-12-26T03:03:56.591Z,358.55
2022-12-26T03:04:56.616Z,359.33
2022-12-26T03:05:56.569Z,361.72
2022-12-26T03:06:56.559Z,363.33
2022-12-26T03:07:56.561Z,362.52
2022-12-26T03:08:56.553Z,356.98
2022-12-26T03:09:56.535Z,352.36
2022-12-26T03:10:56.525Z,351.98
2022-12-26T03:11:56.497Z,354.27
2022-12-26T03:12:56.486Z,358.94
2022-12-26T03:13:56.466Z,361.32
2022-12-26T03:14:56.479Z,356.59
2022-12-26T03:15:56.473Z,353.12
2022-12-26T03:16:56.607Z,348.23
2022-12-26T03:17:56.481Z,350.85
2022-12-26T03:18:58.656Z,348.23
2022-12-26T03:19:56.402Z,345.65
2022-12-26T03:20:56.387Z,348.60
2022-12-26T03:21:56.370Z,351.98
2022-12-26T03:22:56.350Z,358.15
2022-12-26T03:23:56.355Z,369.07
2022-12-26T03:24:56.340Z,371.17
2022-12-26T03:25:56.317Z,370.75
2022-12-26T03:26:56.304Z,369.07
2022-12-26T03:27:56.288Z,361.72
2022-12-26T03:28:56.294Z,364.14
2022-12-26T03:29:56.271Z,377.60
2022-12-26T03:30:56.293Z,381.14
2022-12-26T03:31:56.245Z,384.90
2022-12-26T03:32:56.223Z,389.18
2022-12-26T03:33:56.219Z,392.63
2022-12-26T03:34:56.216Z,392.86
2022-12-26T03:35:56.252Z,395.91
2022-12-26T03:36:56.173Z,378.47
2022-12-26T03:37:56.161Z,389.18
2022-12-26T03:38:56.281Z,396.86
2022-12-26T03:39:56.140Z,400.20
2022-12-26T03:40:56.207Z,399.96
2022-12-26T03:41:56.106Z,394.73
2022-12-26T03:42:56.124Z,386.02
2022-12-26T03:43:56.104Z,374.14
2022-12-26T03:44:56.095Z,360.92
2022-12-26T03:45:56.248Z,367.83
2022-12-26T03:46:56.119Z,374.14
2022-12-26T03:47:56.117Z,376.29
2022-12-26T03:48:56.078Z,388.95
2022-12-26T03:49:56.082Z,384.01
2022-12-26T03:50:56.017Z,385.57
2022-12-26T03:51:56.011Z,386.47
2022-12-26T03:52:56.039Z,394.73
2022-12-26T03:53:56.046Z,397.33
2022-12-26T03:54:56.030Z,399.48
2022-12-26T03:55:56.020Z,399.00
2022-12-26T03:56:56.008Z,394.03
2022-12-26T03:57:56.022Z,395.44
2022-12-26T03:58:55.893Z,402.14
2022-12-26T03:59:56.013Z,400.20
2022-12-26T04:00:55.903Z,401.90
2022-12-26T04:01:56.073Z,394.50
2022-12-26T04:02:55.838Z,402.38
2022-12-26T04:03:55.851Z,406.07
2022-12-26T04:04:55.868Z,405.83
2022-12-26T04:05:55.881Z,405.08
2022-12-26T04:06:55.808Z,404.59
2022-12-26T04:07:58.285Z,396.38
2022-12-26T04:08:55.776Z,396.86
2022-12-26T04:09:55.751Z,386.47
2022-12-26T04:10:55.835Z,372.86
2022-12-26T04:11:55.756Z,369.07
2022-12-26T04:12:55.801Z,378.03
2022-12-26T04:13:55.788Z,389.64
2022-12-26T04:14:55.703Z,392.63
2022-12-26T04:15:55.759Z,395.67
2022-12-26T04:16:55.678Z,397.57
2022-12-26T04:17:55.667Z,396.86
2022-12-26T04:18:55.661Z,404.34
2022-12-26T04:19:55.633Z,398.52
2022-12-26T04:20:55.659Z,395.44
2022-12-26T04:21:55.613Z,388.73
2022-12-26T04:22:55.600Z,384.01
2022-12-26T04:23:55.649Z,382.46
2022-12-26T04:24:55.563Z,384.45
2022-12-26T04:25:55.590Z,378.47
2022-12-26T04:26:55.567Z,389.18
2022-12-26T04:27:55.541Z,392.63
2022-12-26T04:28:55.511Z,389.18
2022-12-26T04:29:55.503Z,382.68
2022-12-26T04:30:55.586Z,380.93
2022-12-26T04:31:55.523Z,373.29
2022-12-26T04:32:55.454Z,369.49
2022-12-26T04:33:55.464Z,368.24
2022-12-26T04:34:55.432Z,362.52
2022-12-26T04:35:55.421Z,361.32
2022-12-26T04:36:55.428Z,347.49
2022-12-26T04:37:55.429Z,344.20
2022-12-26T04:38:55.400Z,344.93
2022-12-26T04:39:55.395Z,336.75
2022-12-26T04:40:55.361Z,332.64
2022-12-26T04:41:55.360Z,327.97
2022-12-26T04:42:55.335Z,317.46
2022-12-26T04:43:55.328Z,322.15
2022-12-26T04:44:55.324Z,324.71
2022-12-26T04:45:55.349Z,314.71
2022-12-26T04:46:55.407Z,277.09
2022-12-26T04:47:55.276Z,263.26
2022-12-26T04:48:55.254Z,270.44
2022-12-26T04:49:55.280Z,272.70
2022-12-26T04:50:55.231Z,284.82
2022-12-26T04:51:55.235Z,278.27
2022-12-26T04:52:55.254Z,279.46
2022-12-26T04:53:55.197Z,289.87
2022-12-26T04:54:55.187Z,295.10
2022-12-26T04:55:55.211Z,284.08
2022-12-26T04:56:55.180Z,293.51
2022-12-26T04:57:55.158Z,294.04
2022-12-26T04:58:55.147Z,289.87
2022-12-26T04:59:55.118Z,289.36
2022-12-26T05:00:55.103Z,289.36
2022-12-26T05:01:55.213Z,299.43
2022-12-26T05:02:55.113Z,306.73
2022-12-26T05:03:55.105Z,317.46
2022-12-26T05:04:55.066Z,317.46
2022-12-26T05:05:55.045Z,322.47
2022-12-26T05:06:55.056Z,305.02
2022-12-26T05:07:55.034Z,295.10
2022-12-26T05:08:55.015Z,293.78
2022-12-26T05:09:55.005Z,294.04
2022-12-26T05:10:54.980Z,297.25
2022-12-26T05:11:54.978Z,289.10
2022-12-26T05:12:54.955Z,297.25
2022-12-26T05:13:54.991Z,297.79
2022-12-26T05:14:54.937Z,296.98
2022-12-26T05:15:54.991Z,305.87
2022-12-26T05:16:54.916Z,315.31
2022-12-26T05:17:54.893Z,317.46
2022-12-26T05:18:54.872Z,327.97
2022-12-26T05:19:54.884Z,324.07
2022-12-26T05:20:54.856Z,319.01
2022-12-26T05:21:54.836Z,316.54
2022-12-26T05:22:54.859Z,319.94
2022-12-26T05:23:54.814Z,328.30
2022-12-26T05:24:54.795Z,320.57
2022-12-26T05:25:54.786Z,325.68
2022-12-26T05:26:54.767Z,318.70
2022-12-26T05:27:54.771Z,307.60
2022-12-26T05:28:54.783Z,301.92
2022-12-26T05:29:54.755Z,271.57
2022-12-26T05:30:54.755Z,222.27
2022-12-26T05:31:54.770Z,197.67
2022-12-26T05:32:54.738Z,187.79
2022-12-26T05:33:54.692Z,208.25
2022-12-26T05:34:54.665Z,218.99
2022-12-26T05:35:54.659Z,240.76
2022-12-26T05:36:54.645Z,253.07
2022-12-26T05:37:54.644Z,263.89
2022-12-26T05:38:54.636Z,280.90
2022-12-26T05:39:54.624Z,293.51
2022-12-26T05:40:54.594Z,298.34
2022-12-26T05:41:54.579Z,299.70
2022-12-26T05:42:54.605Z,309.35
2022-12-26T05:43:54.579Z,309.35
2022-12-26T05:44:54.556Z,305.87
2022-12-26T05:45:54.529Z,304.17
2022-12-26T05:46:54.607Z,302.48
2022-12-26T05:47:54.500Z,302.20
2022-12-26T05:48:54.505Z,301.36
2022-12-26T05:49:54.493Z,299.43
2022-12-26T05:50:54.467Z,292.46
2022-12-26T05:51:54.457Z,287.32
2022-12-26T05:52:54.446Z,291.16
2022-12-26T05:53:54.441Z,286.32
2022-12-26T05:54:54.414Z,276.62
2022-12-26T05:55:54.407Z,266.91
2022-12-26T05:56:54.387Z,259.70
2022-12-26T05:57:54.387Z,258.47
2022-12-26T05:58:54.404Z,256.04
2022-12-26T05:59:54.394Z,254.64
2022-12-26T06:00:54.342Z,259.91
2022-12-26T06:01:54.540Z,268.89
2022-12-26T06:02:54.440Z,272.70
2022-12-26T06:03:54.379Z,273.39
2022-12-26T06:04:54.353Z,275.46
2022-12-26T06:05:54.315Z,279.22
2022-12-26T06:06:54.278Z,279.94
2022-12-26T06:07:54.258Z,283.58
2022-12-26T06:08:54.283Z,281.87
2022-12-26T06:09:54.224Z,293.78
2022-12-26T06:10:54.221Z,300.53
2022-12-26T06:11:54.257Z,303.04
2022-12-26T06:12:54.221Z,306.16
2022-12-26T06:13:54.202Z,310.82
2022-12-26T06:14:54.187Z,314.10
2022-12-26T06:15:54.184Z,312.90
2022-12-26T06:16:54.243Z,315.62
2022-12-26T06:17:54.141Z,321.52
2022-12-26T06:18:54.118Z,322.79
2022-12-26T06:19:54.106Z,329.95
2022-12-26T06:20:54.087Z,337.10
2022-12-26T06:21:54.083Z,338.85
2022-12-26T06:22:54.053Z,340.61
2022-12-26T06:23:54.082Z,347.12
2022-12-26T06:24:54.037Z,352.74
2022-12-26T06:25:54.027Z,346.76
2022-12-26T06:26:54.013Z,350.85
2022-12-26T06:27:53.999Z,361.32
2022-12-26T06:28:53.989Z,363.73
2022-12-26T06:29:53.974Z,370.75
2022-12-26T06:30:53.957Z,376.73
2022-12-26T06:31:54.030Z,375.86
2022-12-26T06:32:53.942Z,383.57
2022-12-26T06:33:53.917Z,389.87
2022-12-26T06:34:53.919Z,388.95
2022-12-26T06:35:53.900Z,391.24
2022-12-26T06:36:53.877Z,395.20
2022-12-26T06:37:53.866Z,397.09
2022-12-26T06:38:53.874Z,399.72
2022-12-26T06:39:53.840Z,393.56
2022-12-26T06:40:53.837Z,387.82
2022-12-26T06:41:53.831Z,374.14
2022-12-26T06:42:53.805Z,358.15
2022-12-26T06:43:53.806Z,348.98
2022-12-26T06:44:53.787Z,338.85
2022-12-26T06:45:53.769Z,335.03
2022-12-26T06:46:53.820Z,328.63
2022-12-26T06:47:53.768Z,315.92
2022-12-26T06:48:53.805Z,314.71
2022-12-26T06:49:53.718Z,316.23
2022-12-26T06:50:53.707Z,309.93
2022-12-26T06:51:53.774Z,301.08
2022-12-26T06:52:53.705Z,295.10
2022-12-26T06:53:53.669Z,285.82
2022-12-26T06:54:53.674Z,290.39
2022-12-26T06:55:53.655Z,286.57
2022-12-26T06:56:53.619Z,282.85
2022-12-26T06:57:53.629Z,284.08
2022-12-26T06:58:53.598Z,282.36
2022-12-26T06:59:53.591Z,280.18
2022-12-26T07:00:53.608Z,279.94
2022-12-26T07:01:53.695Z,276.62
2022-12-26T07:02:53.589Z,277.56
2022-12-26T07:03:53.567Z,274.76
2022-12-26T07:04:53.547Z,273.84
2022-12-26T07:05:53.541Z,275.46
2022-12-26T07:06:53.498Z,279.46
2022-12-26T07:07:53.520Z,279.46
2022-12-26T07:08:53.474Z,279.70
2022-12-26T07:09:53.467Z,278.98
2022-12-26T07:10:53.457Z,278.51
2022-12-26T07:11:53.431Z,284.32
2022-12-26T07:12:53.424Z,288.85
2022-12-26T07:13:53.417Z,296.71
2022-12-26T07:14:56.697Z,296.98
2022-12-26T07:15:53.428Z,301.36
2022-12-26T07:16:53.460Z,298.88
2022-12-26T07:17:53.364Z,302.76
2022-12-26T07:18:53.345Z,305.30
2022-12-26T07:19:53.329Z,304.45
2022-12-26T07:20:53.323Z,307.60
2022-12-26T07:21:53.329Z,300.25
2022-12-26T07:22:53.303Z,300.25
2022-12-26T07:23:53.303Z,306.45
2022-12-26T07:24:53.310Z,301.64
2022-12-26T07:25:53.258Z,307.89
2022-12-26T07:26:53.252Z,314.10
2022-12-26T07:27:53.231Z,320.89
2022-12-26T07:28:53.224Z,329.29
2022-12-26T07:29:53.206Z,337.10
2022-12-26T07:30:53.206Z,341.32
2022-12-26T07:31:53.235Z,344.20
2022-12-26T07:32:53.163Z,350.85
2022-12-26T07:33:53.161Z,353.12
2022-12-26T07:34:53.175Z,354.27
2022-12-26T07:35:53.259Z,356.59
2022-12-26T07:36:53.120Z,358.55
2022-12-26T07:37:53.126Z,358.15
2022-12-26T07:38:53.105Z,364.14
2022-12-26T07:39:58.692Z,364.54
2022-12-26T07:40:53.077Z,364.95
2022-12-26T07:41:53.052Z,360.52
2022-12-26T07:42:53.054Z,362.52
2022-12-26T07:43:53.026Z,358.55
2022-12-26T07:44:53.033Z,356.98
2022-12-26T07:45:53.058Z,360.13
2022-12-26T07:46:53.010Z,358.94
2022-12-26T07:47:52.974Z,359.73
2022-12-26T07:48:52.959Z,356.98
2022-12-26T07:49:52.940Z,354.27
2022-12-26T07:50:52.977Z,355.43
2022-12-26T07:51:52.968Z,355.43
2022-12-26T07:52:52.912Z,358.15
2022-12-26T07:53:52.902Z,351.23
2022-12-26T07:54:52.875Z,358.94
2022-12-26T07:55:52.871Z,351.98
2022-12-26T07:56:52.882Z,350.85
2022-12-26T07:57:52.852Z,355.81
2022-12-26T07:58:52.817Z,365.36
2022-12-26T07:59:53.792Z,364.95
2022-12-26T08:00:52.891Z,360.92
2022-12-26T08:01:53.004Z,368.24
2022-12-26T08:02:52.868Z,363.33
2022-12-26T08:03:52.907Z,358.94
2022-12-26T08:04:52.748Z,353.12
2022-12-26T08:05:52.747Z,351.60
2022-12-26T08:06:52.744Z,345.65
2022-12-26T08:07:52.732Z,347.86
2022-12-26T08:08:52.779Z,346.76
2022-12-26T08:09:52.699Z,338.50
2022-12-26T08:10:52.707Z,321.83
2022-12-26T08:11:52.673Z,307.89
2022-12-26T08:12:52.666Z,307.60
2022-12-26T08:13:52.679Z,311.71
2022-12-26T08:14:52.634Z,306.73
2022-12-26T08:15:52.611Z,304.73
2022-12-26T08:16:53.766Z,314.10
2022-12-26T08:17:52.587Z,320.26
2022-12-26T08:18:52.570Z,326.98
2022-12-26T08:19:52.556Z,332.98
2022-12-26T08:20:52.550Z,341.32
2022-12-26T08:21:52.527Z,332.98
2022-12-26T08:22:52.536Z,327.31
2022-12-26T08:23:52.520Z,332.30
2022-12-26T08:24:52.492Z,331.96
2022-12-26T08:25:52.494Z,339.20
2022-12-26T08:26:52.466Z,343.84
2022-12-26T08:27:52.468Z,335.72
2022-12-26T08:28:52.442Z,336.41
2022-12-26T08:29:52.432Z,337.80
2022-12-26T08:30:52.435Z,342.04
2022-12-26T08:31:52.403Z,346.39
2022-12-26T08:32:52.401Z,345.29
2022-12-26T08:33:52.380Z,353.51
2022-12-26T08:34:52.360Z,361.32
2022-12-26T08:35:52.358Z,358.55
2022-12-26T08:36:52.343Z,350.47
2022-12-26T08:37:52.329Z,351.60
2022-12-26T08:38:52.320Z,346.76
2022-12-26T08:39:52.312Z,347.49
2022-12-26T08:40:52.300Z,369.07
2022-12-26T08:41:52.291Z,372.86
2022-12-26T08:43:12.200Z,371.17
2022-12-26T08:44:25.610Z,369.91
2022-12-26T08:44:52.252Z,384.90
2022-12-26T08:45:52.254Z,397.80
2022-12-26T08:46:52.216Z,400.68
2022-12-26T08:47:52.217Z,408.82
2022-12-26T08:48:52.218Z,412.12
2022-12-26T08:49:52.178Z,410.84
2022-12-26T08:50:52.207Z,406.82
2022-12-26T08:51:52.151Z,417.56
2022-12-26T08:52:52.137Z,420.73
2022-12-26T08:53:52.134Z,431.67
2022-12-26T08:54:52.124Z,437.93
2022-12-26T08:55:52.121Z,443.78
2022-12-26T08:56:52.095Z,451.62
2022-12-26T08:57:52.072Z,453.16
2022-12-26T08:58:52.080Z,464.89
2022-12-26T08:59:52.049Z,448.88
2022-12-26T09:00:55.452Z,445.27
2022-12-26T09:01:52.177Z,453.47
2022-12-26T09:02:52.223Z,477.60
2022-12-26T09:03:52.044Z,474.86
2022-12-26T09:04:51.989Z,493.20
2022-12-26T09:05:51.980Z,499.88
2022-12-26T09:06:51.969Z,510.63
2022-12-26T09:07:51.974Z,509.46
2022-12-26T09:08:51.970Z,503.67
2022-12-26T09:09:51.930Z,482.45
2022-12-26T09:10:51.915Z,475.54
2022-12-26T09:11:51.945Z,489.20
2022-12-26T09:12:51.903Z,506.35
2022-12-26T09:13:51.879Z,498.75
2022-12-26T09:14:51.880Z,483.15
2022-12-26T09:15:51.866Z,489.56
2022-12-26T09:16:51.979Z,500.63
2022-12-26T09:17:51.838Z,519.42
2022-12-26T09:18:51.852Z,533.60
2022-12-26T09:19:51.817Z,519.42
2022-12-26T09:20:51.812Z,523.92
2022-12-26T09:21:51.781Z,512.60
2022-12-26T09:22:51.783Z,531.89
2022-12-26T09:23:51.758Z,518.61
2022-12-26T09:24:51.788Z,487.41
2022-12-26T09:25:51.759Z,502.52
2022-12-26T09:26:51.800Z,532.75
2022-12-26T09:27:58.574Z,512.21
2022-12-26T09:28:51.709Z,515.39
2022-12-26T09:29:51.699Z,512.21
2022-12-26T09:30:51.711Z,528.93
2022-12-26T09:31:51.657Z,540.55
2022-12-26T09:32:51.654Z,563.47
2022-12-26T09:33:51.643Z,552.69
2022-12-26T09:34:51.637Z,565.39
2022-12-26T09:35:51.610Z,519.01
2022-12-26T09:36:51.597Z,469.83
2022-12-26T09:37:51.586Z,453.78
2022-12-26T09:38:51.572Z,433.07
2022-12-26T09:39:51.580Z,423.95
2022-12-26T09:40:51.582Z,412.12
2022-12-26T09:41:51.548Z,382.68
2022-12-26T09:42:51.523Z,374.14
2022-12-26T09:43:51.530Z,377.60
2022-12-26T09:44:51.499Z,378.91
2022-12-26T09:45:51.542Z,361.72
2022-12-26T09:46:51.488Z,354.27
2022-12-26T09:47:51.463Z,352.36
2022-12-26T09:48:51.474Z,355.43
2022-12-26T09:49:51.432Z,330.29
2022-12-26T09:50:51.437Z,328.30
2022-12-26T09:51:51.448Z,334.68
2022-12-26T09:52:51.428Z,345.65
2022-12-26T09:53:51.383Z,384.01
2022-12-26T09:54:51.402Z,352.74
2022-12-26T09:55:51.368Z,313.80
2022-12-26T09:57:13.023Z,305.59
2022-12-26T09:57:51.338Z,303.88
2022-12-26T09:58:51.332Z,305.30
2022-12-26T09:59:51.341Z,328.96
2022-12-26T10:00:51.315Z,338.50
2022-12-26T10:01:51.416Z,365.77
2022-12-26T10:02:51.294Z,385.57
2022-12-26T10:03:51.270Z,376.29
2022-12-26T10:04:51.301Z,360.92
2022-12-26T10:05:51.274Z,353.51
2022-12-26T10:06:51.258Z,367.41
2022-12-26T10:07:51.218Z,387.59
2022-12-26T10:08:51.201Z,408.57
2022-12-26T10:09:51.218Z,400.20
2022-12-26T10:10:51.203Z,395.91
2022-12-26T10:11:51.204Z,375.43
2022-12-26T10:12:51.153Z,337.80
2022-12-26T10:13:51.136Z,327.97
2022-12-26T10:14:51.140Z,343.48
2022-12-26T10:15:51.181Z,344.56
2022-12-26T10:16:51.144Z,326.33
2022-12-26T10:17:51.083Z,356.20
2022-12-26T10:18:51.076Z,395.20
2022-12-26T10:19:51.080Z,396.38
2022-12-26T10:20:51.085Z,372.86
2022-12-26T10:21:51.059Z,340.61
2022-12-26T10:22:51.027Z,335.03
2022-12-26T10:23:51.009Z,385.57
2022-12-26T10:24:51.951Z,411.10
2022-12-26T10:25:50.979Z,435.63
2022-12-26T10:26:51.007Z,437.06
2022-12-26T10:27:50.960Z,463.27
2022-12-26T10:28:50.951Z,473.51
2022-12-26T10:29:50.929Z,513.79
2022-12-26T10:30:51.023Z,555.93
2022-12-26T10:31:50.927Z,537.92
2022-12-26T10:32:50.886Z,516.99
2022-12-26T10:33:50.880Z,549.95
2022-12-26T10:34:50.866Z,539.67
2022-12-26T10:35:50.904Z,541.43
2022-12-26T10:36:50.849Z,544.09
2022-12-26T10:37:50.837Z,553.61
2022-12-26T10:38:50.819Z,612.85
2022-12-26T10:39:50.790Z,576.68
2022-12-26T10:40:50.801Z,561.57
2022-12-26T10:41:50.771Z,604.49
2022-12-26T10:42:50.752Z,577.68
2022-12-26T10:43:50.745Z,573.69
2022-12-26T10:44:50.764Z,563.00
2022-12-26T10:45:50.709Z,530.20
2022-12-26T10:46:50.727Z,533.17
2022-12-26T10:47:50.704Z,504.43
2022-12-26T10:48:50.670Z,460.39
2022-12-26T10:49:50.674Z,420.73
2022-12-26T10:50:50.655Z,413.40
2022-12-26T10:51:50.704Z,468.83
2022-12-26T10:52:50.625Z,477.94
2022-12-26T10:53:50.606Z,501.76
2022-12-26T10:54:50.605Z,502.90
2022-12-26T10:55:50.589Z,510.63
2022-12-26T10:56:50.583Z,530.62
2022-12-26T10:57:50.651Z,564.91
2022-12-26T10:58:50.553Z,595.28
2022-12-26T10:59:50.543Z,592.63
2022-12-26T11:00:50.521Z,577.68
2022-12-26T11:01:50.715Z,558.73
2022-12-26T11:02:50.724Z,593.69
2022-12-26T11:03:50.507Z,596.35
2022-12-26T11:05:15.666Z,621.46
2022-12-26T11:06:50.471Z,650.67
2022-12-26T11:07:50.437Z,624.96
2022-12-26T11:08:50.423Z,611.73
2022-12-26T11:09:50.406Z,606.15
2022-12-26T11:10:50.409Z,526.83
2022-12-26T11:11:50.378Z,502.90
2022-12-26T11:12:50.439Z,468.83
2022-12-26T11:13:50.379Z,442.89
2022-12-26T11:14:50.343Z,429.16
2022-12-26T11:15:50.364Z,399.72
2022-12-26T11:16:50.334Z,355.04
2022-12-26T11:17:50.338Z,350.10
2022-12-26T11:18:50.319Z,350.47
2022-12-26T11:19:50.308Z,428.88
2022-12-26T11:20:50.273Z,454.09
2022-12-26T11:21:50.251Z,413.14
2022-12-26T11:22:50.265Z,394.50
2022-12-26T11:23:50.231Z,358.55
2022-12-26T11:24:50.214Z,374.57
2022-12-26T11:25:50.204Z,342.40
2022-12-26T11:26:50.218Z,314.40
2022-12-26T11:27:50.190Z,287.07
2022-12-26T11:28:50.189Z,253.46
2022-12-26T11:29:50.164Z,232.21
2022-12-26T11:30:50.141Z,288.59
2022-12-26T11:31:50.122Z,315.01
2022-12-26T11:32:50.130Z,366.59
2022-12-26T11:33:50.132Z,375.00
2022-12-26T11:34:50.091Z,340.61
2022-12-26T11:35:50.078Z,339.90
2022-12-26T11:36:50.073Z,354.27
2022-12-26T11:37:50.081Z,358.15
2022-12-26T11:38:50.042Z,362.12
2022-12-26T11:39:50.026Z,337.45
2022-12-26T11:40:50.029Z,315.01
2022-12-26T11:41:49.997Z,293.51
2022-12-26T11:42:49.987Z,262.41
2022-12-26T11:43:49.980Z,215.10
2022-12-26T11:44:49.981Z,222.57
2022-12-26T11:45:49.985Z,199.11
2022-12-26T11:46:50.020Z,184.31
2022-12-26T11:47:49.916Z,185.34
2022-12-26T11:48:49.936Z,196.24
2022-12-26T11:49:49.917Z,197.19
2022-12-26T11:50:49.886Z,229.60
2022-12-26T11:51:55.496Z,229.44
2022-12-26T11:52:49.888Z,184.52
2022-12-26T11:53:49.848Z,183.09
2022-12-26T11:54:49.841Z,202.57
2022-12-26T11:55:49.843Z,192.32
2022-12-26T11:56:49.812Z,188.98
2022-12-26T11:57:53.967Z,203.07
2022-12-26T11:58:49.789Z,219.43
2022-12-26T11:59:49.814Z,251.51
2022-12-26T12:00:49.792Z,267.13
2022-12-26T12:01:49.869Z,274.53
2022-12-26T12:02:49.845Z,297.79
2022-12-26T12:03:50.433Z,343.12
2022-12-26T12:04:49.732Z,370.75
2022-12-26T12:05:49.701Z,398.28
2022-12-26T12:06:49.679Z,413.40
2022-12-26T12:07:49.671Z,426.95
2022-12-26T12:08:49.660Z,446.76
2022-12-26T12:09:49.638Z,445.56
2022-12-26T12:10:49.700Z,439.67
2022-12-26T12:11:49.613Z,465.55
2022-12-26T12:12:49.617Z,489.92
2022-12-26T12:13:49.587Z,494.67
2022-12-26T12:14:54.544Z,482.80
2022-12-26T12:15:49.598Z,471.83
2022-12-26T12:16:49.565Z,474.19
2022-12-26T12:17:49.540Z,488.48
2022-12-26T12:18:49.519Z,488.84
2022-12-26T12:19:49.535Z,502.52
2022-12-26T12:20:51.995Z,507.13
2022-12-26T12:21:49.483Z,499.50
2022-12-26T12:22:49.460Z,483.50
2022-12-26T12:23:49.456Z,471.16
2022-12-26T12:24:49.425Z,444.97
2022-12-26T12:25:49.419Z,427.50
2022-12-26T12:26:54.998Z,412.37
2022-12-26T12:27:49.417Z,398.28
2022-12-26T12:28:49.397Z,377.60
2022-12-26T12:29:49.395Z,362.12